North, SC

11:01 AM EST on December 28, 2014 (GMT -0500)
Pendleton Field | Change Station
CLOSE
Current Station
Personal Weather Station
Location: Swansea, SC
Elevation: 354 ft
Nearby Weather Stations

Elev 354 ft 33.69 °N, 81.23 °W | Updated 9 seconds ago

Mostly Cloudy
Mostly Cloudy
65.7 °F
Feels Like 65.7 °F
N
4.5
Wind Variable Wind from NW
Gusts 4.5 mph

Today
High -- | Low -- °F
--% Chance of Precip.
Yesterday
High -- | Low -- °F
Precip. -- in
7:28 AM 5:24 PM
Waxing Crescent, 49% visible
Pressure 30.11 in
Visibility 10.0 miles
Clouds Scattered Clouds 3500 ft
Overcast 6000 ft
Dew Point 60 °F
Humidity 81%
Rainfall 0.00 in
Snow Depth Not available.
UV 1 out of 12
Pollen .10 out of 12
Air Quality Not available.
Flu Activity Not available.
METAR KCAE 281556Z 23004KT 10SM SCT035 OVC060 18/15 A3011 RMK AO2 SLP194 T01780150 $

More Conditions Fewer Conditions

Pressure 30.11 in
Visibility 10.0 miles
Clouds Scattered Clouds 3500 ft
Overcast 6000 ft
Dew Point 60 °F
Humidity 81%
Rainfall 0.00 in
Snow Depth Not available.
UV 1 out of 12
Pollen .10 out of 12
Air Quality Not available.
Flu Activity Not available.
METAR KCAE 281556Z 23004KT 10SM SCT035 OVC060 18/15 A3011 RMK AO2 SLP194 T01780150 $

More Conditions Fewer Conditions

10-Day Weather Forecast

Almanac

Astronomy

Dec. 28, 2014 Rise Set
Actual Time
Civil Twilight
Nautical Twilight
Astronomical Twilight
Moon
Length of Visible Light
Length of Day
Tomorrow will be .
, % of the Moon is Illuminated

Today's Extremes

State Highs State Lows

Community

WunderPhotos

Upload Photos

1,781,314 photos uploaded!

WunderBlogs® & News

Nearby

Air Quality

  Air Quality AQ Index Pollutant
Not available.

Snow Depth

Station Depth Elevation

Earthquake Activity

City Distance Mag. Time & Date
Minimum magnitude displayed is 2.5.

Coastal Water Temperatures

Place Temperature

Nearby Weather Stations